createdAt,value
2022-08-05T00:01:27.822Z,12.43
2022-08-05T00:06:35.977Z,13.88
2022-08-05T00:11:49.049Z,13.57
2022-08-05T00:16:54.484Z,14.07
2022-08-05T00:21:57.809Z,14.50
2022-08-05T00:27:01.793Z,12.55
2022-08-05T00:32:15.003Z,22.35
2022-08-05T00:37:18.963Z,19.23
2022-08-05T00:42:32.641Z,17.98
2022-08-05T00:47:57.229Z,23.23
2022-08-05T00:53:01.518Z,13.55
2022-08-05T00:58:05.466Z,15.75
2022-08-05T01:03:22.558Z,15.95
2022-08-05T01:08:41.291Z,15.55
2022-08-05T01:13:59.175Z,16.20
2022-08-05T01:19:14.335Z,19.42
2022-08-05T01:24:35.082Z,16.23
2022-08-05T01:29:46.397Z,18.48
2022-08-05T01:34:54.726Z,18.65
2022-08-05T01:39:59.909Z,19.90
2022-08-05T01:45:08.251Z,16.02
2022-08-05T01:50:15.972Z,18.02
2022-08-05T01:55:23.702Z,17.83
2022-08-05T02:00:31.076Z,22.48
2022-08-05T02:05:37.928Z,17.42
2022-08-05T02:10:51.521Z,17.27
2022-08-05T02:16:04.924Z,20.60
2022-08-05T02:21:14.950Z,17.55
2022-08-05T02:26:26.505Z,18.75
2022-08-05T02:31:34.981Z,18.10
2022-08-05T02:36:43.782Z,18.15
2022-08-05T02:42:01.294Z,16.30
2022-08-05T02:47:09.260Z,17.92
2022-08-05T02:52:30.132Z,16.80
2022-08-05T02:58:11.119Z,18.60
2022-08-05T03:03:00.081Z,17.60
2022-08-05T03:08:08.769Z,16.08
2022-08-05T03:13:17.149Z,18.45
2022-08-05T03:18:30.087Z,17.08
2022-08-05T03:23:35.155Z,16.70
2022-08-05T03:28:41.928Z,20.23
2022-08-05T03:33:53.038Z,17.48
2022-08-05T03:38:56.752Z,19.77
2022-08-05T03:44:10.196Z,18.10
2022-08-05T03:49:16.857Z,18.63
2022-08-05T03:55:06.865Z,17.02
2022-08-05T03:59:59.489Z,18.95
2022-08-05T04:05:10.145Z,18.30
2022-08-05T04:10:14.099Z,17.90
2022-08-05T04:15:21.124Z,20.73
2022-08-05T04:20:29.542Z,23.73
2022-08-05T04:25:57.096Z,24.10
2022-08-05T04:30:58.704Z,21.98
2022-08-05T04:36:46.241Z,18.20
2022-08-05T04:41:37.744Z,19.65
2022-08-05T04:46:42.219Z,24.92
2022-08-05T04:52:00.215Z,19.63
2022-08-05T04:57:04.029Z,22.98
2022-08-05T05:02:41.368Z,24.73
2022-08-05T05:07:35.553Z,22.80
2022-08-05T05:12:39.325Z,27.60
2022-08-05T05:17:56.658Z,21.27
2022-08-05T05:23:08.423Z,23.45
2022-08-05T05:28:24.877Z,20.90
2022-08-05T05:33:28.289Z,21.65
2022-08-05T05:38:48.109Z,22.35
2022-08-05T05:43:58.579Z,25.02
2022-08-05T05:49:06.461Z,24.37
2022-08-05T05:54:49.968Z,24.75
2022-08-05T05:59:50.502Z,22.83
2022-08-05T06:04:56.192Z,24.92
2022-08-05T06:10:10.860Z,24.40
2022-08-05T06:15:24.204Z,23.02
2022-08-05T06:26:13.208Z,21.50
2022-08-05T06:30:57.169Z,20.40
2022-08-05T06:36:07.208Z,28.77
2022-08-05T06:41:14.805Z,23.33
2022-08-05T06:46:18.286Z,21.65
2022-08-05T06:51:29.422Z,31.73
2022-08-05T06:56:35.279Z,27.52
2022-08-05T07:01:40.545Z,22.52
2022-08-05T07:06:45.592Z,22.20
2022-08-05T07:11:55.944Z,25.05
2022-08-05T07:18:01.761Z,30.58
2022-08-05T07:22:30.239Z,33.15
2022-08-05T07:27:57.742Z,25.20
2022-08-05T07:32:58.602Z,21.30
2022-08-05T07:38:01.999Z,21.77
2022-08-05T07:43:14.451Z,17.85
2022-08-05T07:49:00.468Z,21.35
2022-08-05T07:53:50.585Z,20.15
2022-08-05T07:58:58.912Z,19.27
2022-08-05T08:04:03.183Z,15.85
2022-08-05T08:09:07.632Z,18.45
2022-08-05T08:14:12.495Z,14.45
2022-08-05T08:20:21.020Z,15.55
2022-08-05T08:24:51.928Z,12.80
2022-08-05T08:30:05.571Z,14.23
2022-08-05T08:35:21.049Z,12.77
2022-08-05T08:40:31.197Z,11.90
2022-08-05T08:45:39.174Z,10.23
2022-08-05T08:51:03.251Z,11.50
2022-08-05T08:56:08.858Z,10.98
2022-08-05T09:01:15.855Z,10.45
2022-08-05T09:06:21.321Z,14.73
2022-08-05T09:11:53.472Z,9.98
2022-08-05T09:16:53.003Z,10.32
2022-08-05T09:22:22.912Z,11.05
2022-08-05T09:28:03.962Z,10.07
2022-08-05T09:33:04.745Z,12.18
2022-08-05T09:38:16.252Z,12.10
2022-08-05T09:43:41.139Z,12.05
2022-08-05T09:48:55.434Z,10.82
2022-08-05T09:54:11.527Z,12.85
2022-08-05T09:59:17.509Z,13.60
2022-08-05T10:04:29.203Z,14.15
2022-08-05T10:09:45.148Z,13.03
2022-08-05T10:14:48.938Z,11.57
2022-08-05T10:20:04.076Z,13.45
2022-08-05T10:25:14.378Z,13.70
2022-08-05T10:31:20.185Z,12.68
2022-08-05T10:35:44.076Z,10.13
2022-08-05T10:40:58.430Z,10.25
2022-08-05T10:46:06.795Z,11.70
2022-08-05T10:51:22.327Z,11.35
2022-08-05T10:56:28.702Z,12.77
2022-08-05T11:01:55.362Z,9.23
2022-08-05T11:07:09.288Z,11.68
2022-08-05T11:12:50.379Z,12.10
2022-08-05T11:18:11.715Z,10.50
2022-08-05T11:23:33.615Z,12.48
2022-08-05T11:29:37.315Z,9.65
2022-08-05T11:34:59.584Z,13.27
2022-08-05T11:40:04.731Z,9.90
2022-08-05T11:45:14.248Z,10.82
2022-08-05T11:50:27.457Z,13.18
2022-08-05T11:55:36.512Z,11.30
2022-08-05T12:00:44.324Z,9.70
2022-08-05T12:05:50.493Z,9.82
2022-08-05T12:10:58.203Z,12.68
2022-08-05T12:16:01.603Z,11.68
2022-08-05T12:21:12.706Z,13.73
2022-08-05T12:26:17.608Z,12.13
2022-08-05T12:31:28.039Z,9.90
2022-08-05T12:36:44.859Z,9.48
2022-08-05T12:41:51.314Z,11.05
2022-08-05T12:47:01.810Z,10.98
2022-08-05T12:52:12.037Z,10.98
2022-08-05T12:57:24.002Z,9.77
2022-08-05T13:02:30.454Z,13.70
2022-08-05T13:07:59.199Z,11.15
2022-08-05T13:12:58.922Z,11.18
2022-08-05T13:18:02.486Z,25.30
2022-08-05T13:23:07.318Z,10.07
2022-08-05T13:28:13.048Z,10.55
2022-08-05T13:34:20.218Z,14.18
2022-08-05T13:38:42.773Z,12.02
2022-08-05T13:43:54.726Z,11.32
2022-08-05T13:49:00.897Z,10.32
2022-08-05T13:54:12.935Z,11.57
2022-08-05T13:59:20.277Z,8.97
2022-08-05T14:04:41.597Z,10.32
2022-08-05T14:09:46.510Z,10.57
2022-08-05T14:14:52.088Z,10.88
2022-08-05T14:20:01.030Z,14.38
2022-08-05T14:25:21.717Z,10.03
2022-08-05T14:30:28.390Z,9.77
2022-08-05T14:35:37.280Z,11.55
2022-08-05T14:40:53.814Z,9.40
2022-08-05T14:45:58.545Z,12.48
2022-08-05T14:51:01.875Z,12.23
2022-08-05T14:56:07.041Z,11.50
2022-08-05T15:01:15.518Z,11.68
2022-08-05T15:06:20.318Z,11.60
2022-08-05T15:11:52.478Z,9.43
2022-08-05T15:16:56.785Z,15.75
2022-08-05T15:22:01.457Z,14.68
2022-08-05T15:27:09.064Z,17.13
2022-08-05T15:32:14.236Z,13.23
2022-08-05T15:37:22.202Z,10.57
2022-08-05T15:48:04.523Z,14.52
2022-08-05T15:53:09.208Z,13.70
2022-08-05T15:58:16.789Z,14.90
2022-08-05T16:03:21.637Z,17.75
2022-08-05T16:08:25.083Z,10.45
2022-08-05T16:13:35.103Z,14.05
2022-08-05T16:18:51.700Z,11.88
2022-08-05T16:23:58.013Z,12.52
2022-08-05T16:29:02.467Z,12.30
2022-08-05T16:34:07.954Z,12.82
2022-08-05T16:39:13.835Z,13.07
2022-08-05T16:44:18.713Z,13.23
2022-08-05T16:49:26.698Z,11.82
2022-08-05T16:54:33.037Z,10.32
2022-08-05T17:00:00.311Z,13.45
2022-08-05T17:10:07.118Z,12.90
2022-08-05T17:15:15.698Z,15.05
2022-08-05T17:20:24.963Z,13.65
2022-08-05T17:25:40.198Z,12.55
2022-08-05T17:30:52.059Z,13.98
2022-08-05T17:36:07.464Z,13.65
2022-08-05T17:42:16.619Z,12.80
2022-08-05T17:46:36.477Z,15.70
2022-08-05T17:51:41.452Z,14.15
2022-08-05T17:56:45.144Z,12.93
2022-08-05T18:01:52.551Z,17.88
2022-08-05T18:07:01.106Z,14.30
2022-08-05T18:12:05.072Z,15.45
2022-08-05T18:17:58.926Z,20.13
2022-08-05T18:22:36.208Z,17.45
2022-08-05T18:27:51.968Z,20.05
2022-08-05T18:33:00.418Z,15.05
2022-08-05T18:38:05.802Z,17.80
2022-08-05T18:43:16.351Z,17.00
2022-08-05T18:48:30.736Z,19.13
2022-08-05T18:53:45.789Z,16.77
2022-08-05T18:58:54.960Z,25.02
2022-08-05T19:04:05.365Z,21.73
2022-08-05T19:09:10.329Z,22.20
2022-08-05T19:14:52.132Z,16.95
2022-08-05T19:19:37.095Z,24.73
2022-08-05T19:24:56.323Z,24.75
2022-08-05T19:30:02.850Z,24.35
2022-08-05T19:35:08.334Z,26.63
2022-08-05T19:40:15.047Z,20.92
2022-08-05T19:45:18.649Z,19.92
2022-08-05T19:50:21.986Z,22.48
2022-08-05T19:56:14.733Z,21.05
2022-08-05T20:00:53.380Z,25.40
2022-08-05T20:05:56.806Z,22.00
2022-08-05T20:11:03.132Z,23.85
2022-08-05T20:16:06.915Z,21.13
2022-08-05T20:21:10.826Z,23.38
2022-08-05T20:26:17.264Z,19.67
2022-08-05T20:31:22.849Z,20.75
2022-08-05T20:36:31.828Z,26.38
2022-08-05T20:41:44.175Z,22.30
2022-08-05T20:46:48.768Z,20.70
2022-08-05T20:51:53.441Z,23.02
2022-08-05T20:56:59.085Z,20.63
2022-08-05T21:02:02.419Z,24.42
2022-08-05T21:07:08.955Z,20.55
2022-08-05T21:12:13.808Z,22.42
2022-08-05T21:17:20.581Z,21.88
2022-08-05T21:22:25.395Z,23.08
2022-08-05T21:32:42.355Z,24.50
2022-08-05T21:37:53.174Z,23.15
2022-08-05T21:42:59.256Z,23.08
2022-08-05T21:48:06.417Z,23.67
2022-08-05T21:53:16.694Z,20.00
2022-08-05T21:58:24.990Z,20.13
2022-08-05T22:03:52.018Z,20.52
2022-08-05T22:08:56.695Z,25.15
2022-08-05T22:14:34.386Z,20.25
2022-08-05T22:19:57.414Z,20.20
2022-08-05T22:25:08.760Z,18.67
2022-08-05T22:30:35.359Z,21.85
2022-08-05T22:35:49.221Z,22.27
2022-08-05T22:40:54.858Z,23.13
2022-08-05T22:46:00.098Z,22.02
2022-08-05T22:51:07.050Z,22.25
2022-08-05T22:56:10.678Z,17.38
2022-08-05T23:01:17.937Z,22.17
2022-08-05T23:06:26.374Z,20.95
2022-08-05T23:11:30.209Z,20.10
2022-08-05T23:16:52.932Z,19.15
2022-08-05T23:21:56.210Z,23.50
2022-08-05T23:26:59.693Z,22.60
2022-08-05T23:32:06.054Z,21.88
2022-08-05T23:37:09.405Z,25.55
2022-08-05T23:42:14.812Z,19.65
2022-08-05T23:47:28.377Z,19.92
2022-08-05T23:52:49.745Z,24.77
2022-08-05T23:57:54.055Z,25.23
